Time;durP1;ratioP1;P1;durP2;ratioP2;P2;SDS_P1;SDS_P2;PMS_P1;PMS_P2;Temp;Humidity;BMP_temperature;BMP_pressure;BME280_temperature;BME280_humidity;BME280_pressure;Samples;Min_cycle;Max_cycle;Signal;HPM_P1;HPM_P2
2022/11/09 00:01:29;;;;;;;20.50;12.73;;;;;;;10.03;100.00;99662.41;5154560;27;20047;-51
2022/11/09 00:03:57;;;;;;;25.65;12.20;;;;;;;9.89;100.00;99661.97;5154842;27;20422;-47
2022/11/09 00:06:24;;;;;;;18.40;11.63;;;;;;;9.92;100.00;99652.28;5154572;27;20055;-48
2022/11/09 00:08:51;;;;;;;23.50;11.70;;;;;;;9.99;100.00;99658.72;5155125;27;20082;-47
2022/11/09 00:11:18;;;;;;;22.08;10.93;;;;;;;9.78;100.00;99660.88;5154880;27;20043;-47
2022/11/09 00:13:45;;;;;;;20.70;11.85;;;;;;;9.54;100.00;99650.81;5155070;27;20428;-49
2022/11/09 00:16:13;;;;;;;20.52;11.65;;;;;;;9.81;100.00;99647.28;5154506;27;20047;-48
2022/11/09 00:18:44;;;;;;;25.40;12.00;;;;;;;10.07;100.00;99655.06;5154613;27;20125;-50
2022/11/09 00:21:14;;;;;;;24.67;12.00;;;;;;;9.97;100.00;99677.47;5154684;27;20506;-48
2022/11/09 00:23:41;;;;;;;21.70;12.15;;;;;;;9.68;100.00;99664.09;5154342;27;20050;-49
2022/11/09 00:26:09;;;;;;;20.33;11.82;;;;;;;9.70;100.00;99664.56;5154705;27;20141;-48
2022/11/09 00:28:35;;;;;;;20.23;11.38;;;;;;;9.84;100.00;99654.03;5154367;27;20043;-47
2022/11/09 00:31:04;;;;;;;20.17;11.57;;;;;;;9.82;100.00;99661.78;5154435;27;20055;-50
2022/11/09 00:33:31;;;;;;;22.05;12.18;;;;;;;9.59;100.00;99673.22;5154357;27;20059;-47
2022/11/09 00:35:58;;;;;;;28.02;12.23;;;;;;;9.84;100.00;99664.97;5154073;27;20079;-48
2022/11/09 00:38:24;;;;;;;25.33;11.48;;;;;;;9.83;100.00;99666.09;5154156;27;20049;-47
2022/11/09 00:40:51;;;;;;;24.35;11.75;;;;;;;9.90;100.00;99677.28;5154303;27;20054;-49
2022/11/09 00:43:17;;;;;;;21.30;11.95;;;;;;;9.81;100.00;99680.16;5154091;27;20081;-47
2022/11/09 00:45:46;;;;;;;22.98;12.18;;;;;;;9.87;100.00;99686.97;5153904;27;20086;-47
2022/11/09 00:48:12;;;;;;;20.02;12.02;;;;;;;9.67;100.00;99685.22;5154153;27;20395;-47
2022/11/09 00:50:38;;;;;;;21.50;11.90;;;;;;;9.49;100.00;99672.91;5153937;27;20049;-47
2022/11/09 00:53:05;;;;;;;21.25;11.57;;;;;;;9.56;100.00;99668.47;5153910;27;20506;-48
2022/11/09 00:55:31;;;;;;;27.75;12.00;;;;;;;9.62;100.00;99658.84;5153739;27;20115;-47
2022/11/09 00:57:58;;;;;;;19.73;11.15;;;;;;;9.51;100.00;99655.03;5153984;27;20047;-49
2022/11/09 01:00:24;;;;;;;21.90;11.65;;;;;;;9.26;100.00;99645.25;5153695;27;20057;-47
2022/11/09 01:02:50;;;;;;;18.23;11.57;;;;;;;9.30;100.00;99638.75;5153754;27;20057;-48
2022/11/09 01:05:17;;;;;;;23.02;12.23;;;;;;;9.30;100.00;99638.75;5152870;27;20050;-49
2022/11/09 01:07:43;;;;;;;20.48;11.45;;;;;;;9.36;100.00;99633.81;5153582;27;20047;-48
2022/11/09 01:10:09;;;;;;;24.15;11.73;;;;;;;9.12;100.00;99629.19;5153637;27;20047;-47
2022/11/09 01:12:36;;;;;;;29.92;10.88;;;;;;;9.18;100.00;99603.22;5153625;27;20050;-47
2022/11/09 01:15:03;;;;;;;19.85;11.40;;;;;;;8.85;100.00;99595.16;5153592;27;20500;-48
2022/11/09 01:17:30;;;;;;;22.55;11.73;;;;;;;8.84;100.00;99567.03;5153615;27;20047;-48
2022/11/09 01:19:56;;;;;;;24.33;12.27;;;;;;;8.83;100.00;99548.22;5153649;27;20053;-48
2022/11/09 01:22:22;;;;;;;24.75;11.85;;;;;;;8.91;100.00;99552.78;5153283;27;20042;-49
2022/11/09 01:24:48;;;;;;;19.33;12.02;;;;;;;8.95;100.00;99553.66;5153916;27;20137;-48
2022/11/09 01:27:15;;;;;;;24.75;11.05;;;;;;;9.04;100.00;99546.13;5153528;27;20050;-48
2022/11/09 01:29:41;;;;;;;22.85;12.07;;;;;;;9.01;100.00;99551.50;5153467;27;20601;-48
2022/11/09 01:32:08;;;;;;;22.48;11.35;;;;;;;9.00;100.00;99563.56;5153608;27;20512;-46
2022/11/09 01:34:35;;;;;;;20.13;11.15;;;;;;;9.01;100.00;99563.25;5153438;27;20077;-47
2022/11/09 01:37:01;;;;;;;18.92;11.48;;;;;;;8.96;100.00;99558.00;5153646;27;20079;-47
2022/11/09 01:39:27;;;;;;;18.60;11.63;;;;;;;8.85;100.00;99559.59;5153542;27;20418;-51
2022/11/09 01:41:53;;;;;;;25.13;12.20;;;;;;;9.08;100.00;99554.44;5153471;27;20398;-48
2022/11/09 01:44:20;;;;;;;24.70;11.65;;;;;;;8.78;100.00;99562.91;5153106;27;20046;-50
2022/11/09 01:46:51;;;;;;;20.15;11.13;;;;;;;8.93;100.00;99561.44;5153219;27;20133;-47
2022/11/09 01:49:27;;;;;;;23.02;11.05;;;;;;;8.70;100.00;99541.97;5152867;27;20056;-47
2022/11/09 01:51:57;;;;;;;20.85;10.30;;;;;;;8.57;100.00;99515.78;5153319;27;20129;-48
2022/11/09 01:54:32;;;;;;;19.75;11.00;;;;;;;8.49;100.00;99501.88;5152775;27;20047;-48
2022/11/09 01:57:05;;;;;;;;;;;;;;;8.52;100.00;99484.00;5153491;27;20397;-48
2022/11/09 01:59:44;;;;;;;25.52;11.38;;;;;;;8.07;100.00;99460.34;5153214;27;20048;-47
2022/11/09 02:02:11;;;;;;;23.75;11.80;;;;;;;8.17;100.00;99429.06;5152962;27;20497;-49
2022/11/09 02:04:43;;;;;;;18.77;11.27;;;;;;;8.10;100.00;99424.16;5152959;27;20051;-47
2022/11/09 02:07:10;;;;;;;20.60;11.57;;;;;;;7.89;100.00;99398.88;5152737;27;20053;-51
2022/11/09 02:09:40;;;;;;;24.38;12.60;;;;;;;7.82;100.00;99379.56;5152808;27;20098;-48
2022/11/09 02:12:08;;;;;;;22.20;12.73;;;;;;;7.97;100.00;99373.44;5152589;27;20050;-47
2022/11/09 02:14:36;;;;;;;26.80;13.40;;;;;;;7.79;100.00;99361.94;5152502;27;20506;-48
2022/11/09 02:17:02;;;;;;;28.52;14.68;;;;;;;7.82;100.00;99353.06;5152796;27;20094;-47
2022/11/09 02:19:28;;;;;;;31.80;13.65;;;;;;;7.71;100.00;99338.28;5152631;27;20426;-47
2022/11/09 02:21:56;;;;;;;27.88;15.02;;;;;;;7.62;100.00;99329.41;5152614;27;20047;-51
2022/11/09 02:24:22;;;;;;;30.75;15.55;;;;;;;7.81;100.00;99310.53;5152201;27;20047;-47
2022/11/09 02:26:50;;;;;;;33.65;16.52;;;;;;;7.70;100.00;99314.88;5152476;27;20053;-47
2022/11/09 02:29:20;;;;;;;29.77;15.43;;;;;;;7.68;100.00;99312.47;5152191;27;20057;-51
2022/11/09 02:31:52;;;;;;;36.40;17.35;;;;;;;7.59;100.00;99311.00;5152498;27;20054;-51
2022/11/09 02:34:20;;;;;;;35.38;19.55;;;;;;;7.74;100.00;99310.31;5152157;27;20139;-49
2022/11/09 02:36:47;;;;;;;44.80;20.92;;;;;;;7.40;100.00;99304.19;5152114;27;20051;-50
2022/11/09 02:39:17;;;;;;;52.75;20.90;;;;;;;7.72;100.00;99290.75;5152061;27;20141;-50
2022/11/09 02:41:48;;;;;;;42.10;21.05;;;;;;;7.79;100.00;99305.41;5152358;27;20421;-47
2022/11/09 02:44:15;;;;;;;40.58;20.58;;;;;;;7.72;100.00;99302.44;5151955;27;20463;-47
2022/11/09 02:46:42;;;;;;;37.88;19.35;;;;;;;7.46;100.00;99302.00;5152128;27;20051;-47
2022/11/09 02:49:08;;;;;;;35.88;18.30;;;;;;;7.54;100.00;99301.91;5152392;27;20043;-47
2022/11/09 02:51:35;;;;;;;32.42;19.42;;;;;;;7.74;100.00;99302.91;5151989;27;20510;-47
2022/11/09 02:54:01;;;;;;;40.55;18.98;;;;;;;7.69;100.00;99319.50;5152370;27;20187;-48
2022/11/09 02:56:28;;;;;;;34.47;17.65;;;;;;;7.71;100.00;99330.09;5152109;27;20394;-47
2022/11/09 02:58:54;;;;;;;37.20;18.95;;;;;;;7.57;100.00;99335.91;5152348;27;20051;-47
2022/11/09 03:01:21;;;;;;;35.33;18.95;;;;;;;7.03;100.00;99325.13;5151981;27;20081;-47
2022/11/09 03:03:47;;;;;;;44.08;20.63;;;;;;;7.22;100.00;99305.50;5151758;27;20050;-47
2022/11/09 03:06:13;;;;;;;33.92;19.17;;;;;;;7.08;100.00;99295.72;5151671;27;20053;-47
2022/11/09 03:08:40;;;;;;;35.47;17.83;;;;;;;6.87;100.00;99280.59;5151702;27;20122;-48
2022/11/09 03:11:06;;;;;;;39.10;18.27;;;;;;;6.96;100.00;99267.63;5151839;27;20043;-47
2022/11/09 03:13:33;;;;;;;35.50;17.38;;;;;;;6.92;100.00;99262.06;5151801;27;20428;-47
2022/11/09 03:16:04;;;;;;;36.92;16.48;;;;;;;6.89;100.00;99259.22;5151380;27;20047;-50
2022/11/09 03:18:30;;;;;;;41.33;18.52;;;;;;;7.22;100.00;99259.16;5151791;27;20050;-48
2022/11/09 03:21:01;;;;;;;32.47;17.58;;;;;;;7.12;100.00;99265.84;5151957;27;20091;-50
2022/11/09 03:23:28;;;;;;;34.45;17.92;;;;;;;6.91;100.00;99265.94;5151423;27;20103;-49
2022/11/09 03:25:54;;;;;;;41.38;18.55;;;;;;;6.71;100.00;99256.69;5151515;27;20418;-50
2022/11/09 03:28:20;;;;;;;40.38;18.63;;;;;;;6.74;100.00;99247.06;5150868;27;20055;-47
2022/11/09 03:30:47;;;;;;;38.33;18.17;;;;;;;6.68;100.00;99242.94;5151647;27;20042;-47
2022/11/09 03:33:13;;;;;;;47.38;20.35;;;;;;;6.99;100.00;99237.78;5151440;27;20054;-48
2022/11/09 03:35:40;;;;;;;35.40;18.98;;;;;;;6.71;100.00;99242.28;5151564;27;20051;-48
2022/11/09 03:38:06;;;;;;;32.72;18.73;;;;;;;6.72;100.00;99238.41;5151593;27;20169;-50
2022/11/09 03:40:33;;;;;;;38.70;18.85;;;;;;;6.82;100.00;99237.97;5151572;27;20053;-51
2022/11/09 03:42:59;;;;;;;39.08;18.77;;;;;;;6.65;100.00;99236.25;5151757;27;20046;-48
2022/11/09 03:45:26;;;;;;;37.97;19.50;;;;;;;6.60;100.00;99242.72;5150938;27;20137;-48
2022/11/09 03:47:55;;;;;;;32.03;17.67;;;;;;;6.53;100.00;99231.56;5151465;27;20057;-47
2022/11/09 03:50:22;;;;;;;32.85;19.45;;;;;;;6.64;100.00;99233.88;5151439;27;20513;-48
2022/11/09 03:52:48;;;;;;;40.63;21.00;;;;;;;6.76;100.00;99228.44;5151800;27;20537;-47
2022/11/09 03:55:14;;;;;;;40.05;22.23;;;;;;;6.68;100.00;99234.78;5151450;27;20486;-47
2022/11/09 03:57:41;;;;;;;34.53;21.00;;;;;;;6.43;100.00;99240.16;5151172;27;20047;-47
2022/11/09 04:00:08;;;;;;;35.97;21.10;;;;;;;6.36;100.00;99227.09;5151094;27;20490;-49
2022/11/09 04:02:34;;;;;;;36.20;20.15;;;;;;;6.42;100.00;99222.22;5150938;27;20053;-47
2022/11/09 04:05:01;;;;;;;38.35;20.40;;;;;;;6.42;100.00;99224.94;5150891;27;20051;-48
2022/11/09 04:07:28;;;;;;;36.80;21.38;;;;;;;6.33;100.00;99225.03;5150856;27;20433;-48
2022/11/09 04:09:54;;;;;;;46.47;21.75;;;;;;;6.37;100.00;99222.44;5151060;27;20082;-48
2022/11/09 04:12:20;;;;;;;43.65;23.58;;;;;;;6.61;100.00;99216.25;5150860;27;20051;-47
2022/11/09 04:14:47;;;;;;;47.47;25.38;;;;;;;6.60;100.00;99223.63;5151090;27;20177;-48
2022/11/09 04:17:13;;;;;;;41.47;24.92;;;;;;;6.35;100.00;99232.84;5150657;27;20055;-47
2022/11/09 04:19:39;;;;;;;46.47;26.25;;;;;;;6.40;100.00;99224.50;5151038;27;20447;-49
2022/11/09 04:22:06;;;;;;;52.65;28.30;;;;;;;6.54;100.00;99219.53;5150721;27;20061;-48
2022/11/09 04:24:33;;;;;;;56.63;30.50;;;;;;;6.70;100.00;99214.25;5150790;27;20138;-47
2022/11/09 04:26:59;;;;;;;55.97;29.08;;;;;;;6.62;100.00;99219.78;5150542;27;20043;-48
2022/11/09 04:29:25;;;;;;;62.17;31.00;;;;;;;7.01;100.00;99219.16;5150659;27;20043;-48
2022/11/09 04:31:52;;;;;;;51.00;29.42;;;;;;;6.73;100.00;99229.91;5150515;27;20451;-47
2022/11/09 04:34:18;;;;;;;64.00;32.13;;;;;;;6.81;100.00;99228.22;5150413;27;20054;-50
2022/11/09 04:36:44;;;;;;;53.58;28.90;;;;;;;6.56;100.00;99235.53;5150695;27;20050;-47
2022/11/09 04:39:12;;;;;;;56.72;30.00;;;;;;;6.53;100.00;99239.75;5150994;27;20119;-49
2022/11/09 04:41:38;;;;;;;58.90;29.65;;;;;;;6.93;100.00;99232.88;5154332;27;20412;-50
2022/11/09 04:44:05;;;;;;;64.25;32.85;;;;;;;6.87;100.00;99242.44;5153901;27;20107;-49
2022/11/09 04:46:31;;;;;;;56.53;30.13;;;;;;;6.44;100.00;99236.31;5154122;27;20130;-48
2022/11/09 04:48:57;;;;;;;65.57;30.02;;;;;;;6.84;100.00;99233.00;5153851;27;20075;-47
2022/11/09 04:51:23;;;;;;;64.60;31.92;;;;;;;6.77;100.00;99241.72;5154033;27;20061;-47
2022/11/09 04:53:50;;;;;;;57.90;30.48;;;;;;;6.47;100.00;99241.06;5153685;27;20047;-48
2022/11/09 04:56:16;;;;;;;58.67;29.90;;;;;;;6.65;100.00;99235.44;5153803;27;20053;-47
2022/11/09 04:58:43;;;;;;;54.20;28.88;;;;;;;6.93;100.00;99241.06;5153591;27;20051;-47
2022/11/09 05:01:11;;;;;;;43.47;23.27;;;;;;;6.58;100.00;99242.25;5153415;27;20055;-46
2022/11/09 05:03:38;;;;;;;47.22;25.00;;;;;;;6.82;100.00;99246.16;5153679;27;20120;-48
2022/11/09 05:06:30;;;;;;;38.50;21.05;;;;;;;6.58;100.00;99255.06;5153674;27;20050;-47
2022/11/09 05:08:51;;;;;;;39.10;18.52;;;;;;;6.40;100.00;99240.84;5153623;27;20058;-48
2022/11/09 05:11:18;;;;;;;40.85;20.13;;;;;;;6.81;100.00;99239.13;5153470;27;20055;-50
2022/11/09 05:13:44;;;;;;;34.08;19.38;;;;;;;6.86;100.00;99257.16;5153802;27;20050;-47
2022/11/09 05:16:10;;;;;;;36.75;18.23;;;;;;;7.25;100.00;99263.94;5153492;27;20058;-48
2022/11/09 05:18:37;;;;;;;33.42;16.50;;;;;;;7.08;100.00;99282.09;5153208;27;20046;-49
2022/11/09 05:21:04;;;;;;;34.88;17.00;;;;;;;7.04;100.00;99292.09;5153194;27;20057;-54
2022/11/09 05:26:14;;;;;;;;;;;;;;;6.97;100.00;99323.75;5154419;27;20110;-50
2022/11/09 05:28:41;;;;;;;31.98;17.00;;;;;;;7.03;100.00;99319.66;5153216;27;19926;-51
2022/11/09 05:31:08;;;;;;;44.08;19.58;;;;;;;7.24;100.00;99330.53;5153474;27;20525;-51
2022/11/09 05:33:35;;;;;;;31.20;18.08;;;;;;;7.28;100.00;99345.84;5153184;27;20137;-54
2022/11/09 05:36:01;;;;;;;32.95;17.75;;;;;;;7.15;100.00;99355.16;5153278;27;20046;-52
2022/11/09 05:38:28;;;;;;;50.03;21.15;;;;;;;6.84;100.00;99371.97;5152785;27;20057;-51
2022/11/09 05:40:54;;;;;;;43.22;20.50;;;;;;;6.91;100.00;99364.06;5152914;27;20049;-52
2022/11/09 05:43:21;;;;;;;33.72;18.73;;;;;;;6.98;100.00;99358.84;5152903;27;20050;-53
2022/11/09 05:45:48;;;;;;;47.50;21.15;;;;;;;6.93;100.00;99367.25;5152913;27;20514;-50
2022/11/09 05:48:16;;;;;;;49.55;23.75;;;;;;;7.26;100.00;99380.88;5152985;27;20046;-52
2022/11/09 05:50:43;;;;;;;47.97;20.73;;;;;;;7.12;100.00;99396.72;5152418;27;20133;-50
2022/11/09 05:53:11;;;;;;;42.10;20.88;;;;;;;7.21;100.00;99404.81;5152936;27;20047;-49
2022/11/09 05:55:37;;;;;;;42.33;21.70;;;;;;;7.08;100.00;99410.22;5152816;27;20060;-53
2022/11/09 05:58:03;;;;;;;52.95;22.95;;;;;;;7.21;100.00;99421.19;5152842;27;20050;-51
2022/11/09 06:00:30;;;;;;;44.90;23.20;;;;;;;7.40;100.00;99434.31;5152731;27;20102;-52
2022/11/09 06:03:02;;;;;;;43.38;23.40;;;;;;;7.36;100.00;99449.72;5152951;27;20133;-51
2022/11/09 06:05:28;;;;;;;50.58;24.75;;;;;;;7.29;100.00;99472.88;5152604;27;20058;-52
2022/11/09 06:07:54;;;;;;;82.68;29.55;;;;;;;7.11;100.00;99465.22;5153162;27;20053;-49
2022/11/09 06:10:21;;;;;;;54.53;27.90;;;;;;;7.41;100.00;99450.31;5152662;27;20051;-51
2022/11/09 06:12:49;;;;;;;57.25;26.83;;;;;;;7.34;100.00;99469.16;5152514;27;20054;-50
2022/11/09 06:15:16;;;;;;;63.90;31.40;;;;;;;7.67;100.00;99482.78;5152446;27;20061;-49
2022/11/09 06:17:42;;;;;;;71.85;32.88;;;;;;;7.40;100.00;99507.97;5152620;27;20110;-50
2022/11/09 06:20:10;;;;;;;78.30;35.88;;;;;;;7.61;100.00;99516.88;5152584;27;20055;-49
2022/11/09 06:22:36;;;;;;;80.95;34.30;;;;;;;7.42;100.00;99520.09;5152472;27;20542;-51
2022/11/09 06:25:03;;;;;;;65.63;30.13;;;;;;;7.60;100.00;99517.19;5152427;27;20165;-52
2022/11/09 06:27:29;;;;;;;62.78;29.88;;;;;;;7.29;100.00;99516.53;5152238;27;20487;-50
2022/11/09 06:29:56;;;;;;;61.90;28.83;;;;;;;7.42;100.00;99503.75;5152468;27;20047;-51
2022/11/09 06:32:22;;;;;;;61.97;27.73;;;;;;;7.21;100.00;99508.44;5151824;27;20103;-49
2022/11/09 06:34:48;;;;;;;63.88;28.58;;;;;;;7.49;100.00;99493.06;5152236;27;20051;-51
2022/11/09 06:37:16;;;;;;;59.75;29.08;;;;;;;7.39;100.00;99500.88;5152069;27;20042;-49
2022/11/09 06:39:44;;;;;;;65.80;26.42;;;;;;;7.24;100.00;99491.41;5152324;27;20073;-51
2022/11/09 06:42:10;;;;;;;56.72;27.00;;;;;;;7.61;100.00;99489.59;5151888;27;20046;-55
2022/11/09 06:44:36;;;;;;;49.70;23.48;;;;;;;7.49;100.00;99514.91;5151725;27;20095;-50
2022/11/09 06:47:03;;;;;;;51.25;24.02;;;;;;;7.79;100.00;99515.56;5151935;27;20057;-48
2022/11/09 06:49:29;;;;;;;50.03;22.00;;;;;;;7.53;100.00;99539.56;5151891;27;20043;-49
2022/11/09 06:51:55;;;;;;;60.63;23.13;;;;;;;7.38;100.00;99541.00;5152055;27;20054;-49
2022/11/09 06:54:23;;;;;;;48.25;22.50;;;;;;;7.95;100.00;99539.50;5151992;27;20054;-48
2022/11/09 06:56:53;;;;;;;47.42;23.25;;;;;;;7.90;100.00;99562.34;5151733;27;20519;-53
2022/11/09 06:59:19;;;;;;;54.42;22.13;;;;;;;7.79;100.00;99555.72;5151527;27;20046;-50
2022/11/09 07:01:46;;;;;;;53.70;19.40;;;;;;;7.78;100.00;99559.56;5151339;27;20054;-50
2022/11/09 07:04:14;;;;;;;47.03;21.38;;;;;;;7.97;100.00;99559.88;5151276;27;20506;-54
2022/11/09 07:06:40;;;;;;;48.00;22.80;;;;;;;7.99;100.00;99584.09;5151881;27;20570;-50
2022/11/09 07:09:07;;;;;;;38.78;18.58;;;;;;;7.51;100.00;99593.69;5151589;27;20047;-52
2022/11/09 07:11:33;;;;;;;37.15;17.52;;;;;;;7.40;100.00;99568.75;5151504;27;20057;-53
2022/11/09 07:14:01;;;;;;;36.88;17.85;;;;;;;7.59;100.00;99551.88;5151491;27;20054;-51
2022/11/09 07:16:28;;;;;;;37.72;18.10;;;;;;;7.61;100.00;99540.66;5151350;27;20165;-52
2022/11/09 07:18:54;;;;;;;30.23;16.70;;;;;;;7.74;100.00;99547.75;5151357;27;20043;-50
2022/11/09 07:21:20;;;;;;;31.75;17.92;;;;;;;7.77;100.00;99558.00;5151220;27;20057;-52
2022/11/09 07:23:48;;;;;;;44.08;18.25;;;;;;;8.18;100.00;99567.19;5151251;27;20450;-51
2022/11/09 07:26:15;;;;;;;35.15;17.45;;;;;;;7.71;100.00;99614.72;5151096;27;20395;-49
2022/11/09 07:28:42;;;;;;;32.60;16.27;;;;;;;8.16;100.00;99616.69;5151456;27;20520;-51
2022/11/09 07:31:09;;;;;;;28.92;15.30;;;;;;;8.08;100.00;99635.88;5151343;27;20057;-50
2022/11/09 07:33:35;;;;;;;30.17;16.00;;;;;;;7.52;100.00;99637.00;5151809;27;20587;-51
2022/11/09 07:36:05;;;;;;;29.00;14.43;;;;;;;7.41;100.00;99629.56;5151104;27;20126;-51
2022/11/09 07:38:31;;;;;;;37.28;16.63;;;;;;;7.74;100.00;99618.69;5151305;27;20531;-50
2022/11/09 07:40:58;;;;;;;40.40;16.30;;;;;;;7.47;100.00;99623.56;5151397;27;20552;-50
2022/11/09 07:43:25;;;;;;;32.38;17.15;;;;;;;7.46;100.00;99610.25;5151183;27;20103;-51
2022/11/09 07:45:52;;;;;;;40.88;18.73;;;;;;;8.04;100.00;99603.00;5151375;27;20050;-50
2022/11/09 07:48:18;;;;;;;29.83;14.80;;;;;;;7.66;100.00;99616.84;5151150;27;20051;-50
2022/11/09 07:50:45;;;;;;;32.00;16.73;;;;;;;7.83;100.00;99621.34;5151197;27;20046;-51
2022/11/09 07:53:13;;;;;;;43.95;23.33;;;;;;;8.05;100.00;99626.44;5150928;27;20053;-49
2022/11/09 07:55:40;;;;;;;53.20;27.23;;;;;;;7.89;100.00;99666.41;5151317;27;20050;-52
2022/11/09 07:58:07;;;;;;;36.45;20.42;;;;;;;7.89;100.00;99674.59;5150964;27;20094;-49
2022/11/09 08:00:36;;;;;;;54.78;29.48;;;;;;;8.04;100.00;99674.00;5150944;27;20046;-50
2022/11/09 08:03:04;;;;;;;43.13;21.70;;;;;;;8.20;100.00;99674.97;5151238;27;20057;-50
2022/11/09 08:05:30;;;;;;;39.22;18.60;;;;;;;8.30;100.00;99709.25;5151168;27;20058;-53
2022/11/09 08:07:57;;;;;;;39.38;18.35;;;;;;;8.67;100.00;99709.41;5151162;27;20051;-50
2022/11/09 08:10:24;;;;;;;34.63;19.15;;;;;;;8.39;100.00;99729.09;5150889;27;20075;-50
2022/11/09 08:12:55;;;;;;;33.13;18.08;;;;;;;9.33;100.00;99736.56;5150996;27;20560;-49
2022/11/09 08:15:21;;;;;;;31.25;16.25;;;;;;;8.59;100.00;99757.53;5154457;27;20497;-52
2022/11/09 08:17:47;;;;;;;32.25;18.85;;;;;;;8.95;100.00;99747.81;5154289;27;20049;-50
2022/11/09 08:20:15;;;;;;;38.55;19.20;;;;;;;9.54;100.00;99743.88;5154296;27;20456;-51
2022/11/09 08:22:42;;;;;;;30.23;17.17;;;;;;;9.48;100.00;99717.88;5154670;27;20069;-52
2022/11/09 08:25:09;;;;;;;28.48;16.35;;;;;;;9.35;100.00;99648.66;5154003;27;20047;-51
2022/11/09 08:27:39;;;;;;;28.60;15.27;;;;;;;9.02;100.00;99692.56;5154362;27;20047;-50
2022/11/09 08:30:06;;;;;;;30.52;16.80;;;;;;;9.33;100.00;99708.41;5154069;27;20047;-51
2022/11/09 08:32:33;;;;;;;22.50;13.73;;;;;;;9.41;100.00;99685.59;5154087;27;20047;-51
2022/11/09 08:34:59;;;;;;;23.02;13.23;;;;;;;8.55;100.00;99688.28;5154065;27;20456;-52
2022/11/09 08:37:26;;;;;;;25.92;13.63;;;;;;;8.59;100.00;99719.25;5153787;27;20047;-52
2022/11/09 08:39:52;;;;;;;24.35;14.88;;;;;;;8.59;100.00;99729.41;5154006;27;20049;-52
2022/11/09 08:42:19;;;;;;;25.67;14.70;;;;;;;8.83;100.00;99737.69;5154113;27;20429;-51
2022/11/09 08:44:45;;;;;;;33.25;17.15;;;;;;;8.71;100.00;99741.16;5153755;27;20050;-52
2022/11/09 08:47:11;;;;;;;35.65;18.23;;;;;;;9.15;100.00;99741.47;5153770;27;20050;-52
2022/11/09 08:49:37;;;;;;;28.35;15.07;;;;;;;8.67;100.00;99742.19;5154245;27;20447;-50
2022/11/09 08:52:04;;;;;;;25.60;13.57;;;;;;;8.79;100.00;99746.88;5153992;27;20073;-52
2022/11/09 08:54:31;;;;;;;24.90;13.95;;;;;;;8.71;100.00;99754.03;5154398;27;20059;-54
2022/11/09 08:56:57;;;;;;;31.17;13.80;;;;;;;8.72;100.00;99758.38;5153771;27;20051;-51
2022/11/09 08:59:23;;;;;;;25.20;12.80;;;;;;;8.68;100.00;99743.78;5154040;27;20079;-52
2022/11/09 09:01:50;;;;;;;24.90;12.23;;;;;;;8.55;100.00;99751.16;5153889;27;20092;-51
2022/11/09 09:04:16;;;;;;;21.67;12.25;;;;;;;8.75;100.00;99759.63;5153444;27;20409;-54
2022/11/09 09:06:42;;;;;;;25.70;13.02;;;;;;;8.74;100.00;99758.84;5153690;27;20174;-52
2022/11/09 09:09:09;;;;;;;24.65;12.35;;;;;;;9.17;100.00;99749.34;5153488;27;20399;-51
2022/11/09 09:11:36;;;;;;;23.83;11.90;;;;;;;8.73;100.00;99749.03;5153770;27;20111;-54
2022/11/09 09:14:02;;;;;;;22.40;12.45;;;;;;;9.03;100.00;99744.19;5153511;27;20082;-49
2022/11/09 09:16:28;;;;;;;21.17;11.13;;;;;;;9.08;100.00;99743.16;5153270;27;20046;-53
2022/11/09 09:18:55;;;;;;;25.48;13.15;;;;;;;9.58;100.00;99725.59;5153257;27;20043;-48
2022/11/09 09:21:21;;;;;;;25.17;12.23;;;;;;;9.47;100.00;99711.59;5153162;27;20475;-50
2022/11/09 09:23:48;;;;;;;19.13;11.55;;;;;;;9.71;100.00;99686.09;5153295;27;20050;-50
2022/11/09 09:26:14;;;;;;;23.08;12.07;;;;;;;9.64;100.00;99670.28;5152589;27;20050;-51
2022/11/09 09:28:41;;;;;;;19.20;11.43;;;;;;;9.62;100.00;99658.84;5153238;27;20054;-53
2022/11/09 09:31:07;;;;;;;21.27;13.07;;;;;;;9.80;100.00;99644.91;5153272;27;20042;-54
2022/11/09 09:33:34;;;;;;;26.00;12.05;;;;;;;10.10;100.00;99626.19;5153205;27;20051;-49
2022/11/09 09:36:01;;;;;;;19.92;11.05;;;;;;;10.01;100.00;99620.06;5153024;27;20054;-53
2022/11/09 09:38:28;;;;;;;23.52;11.75;;;;;;;10.17;100.00;99603.66;5153011;27;20180;-51
2022/11/09 09:40:58;;;;;;;19.10;10.70;;;;;;;10.26;100.00;99542.09;5152640;27;20429;-52
2022/11/09 09:43:29;;;;;;;20.77;11.20;;;;;;;10.32;100.00;99490.53;5152744;27;20043;-50
2022/11/09 09:45:58;;;;;;;21.27;12.32;;;;;;;10.71;100.00;99474.22;5152868;27;20394;-51
2022/11/09 09:48:30;;;;;;;23.42;11.52;;;;;;;10.48;100.00;99394.59;5153279;27;20103;-53
2022/11/09 09:51:03;;;;;;;23.05;12.20;;;;;;;10.54;100.00;99390.41;5152829;27;20050;-52
2022/11/09 09:53:33;;;;;;;23.33;9.93;;;;;;;10.32;100.00;99375.44;5152459;27;20506;-54
2022/11/09 09:56:03;;;;;;;20.48;10.45;;;;;;;10.58;100.00;99397.56;5152425;27;20042;-51
2022/11/09 09:58:32;;;;;;;19.30;9.80;;;;;;;10.50;100.00;99367.63;5152639;27;20077;-52
2022/11/09 10:01:14;;;;;;;17.90;9.90;;;;;;;10.30;100.00;99381.28;5152468;27;20042;-52
2022/11/09 10:03:40;;;;;;;20.17;11.20;;;;;;;11.17;100.00;99365.44;5152336;27;20065;-51
2022/11/09 10:06:21;;;;;;;16.48;9.40;;;;;;;10.79;100.00;99265.56;5152436;27;20099;-50
2022/11/09 10:08:57;;;;;;;21.77;9.13;;;;;;;11.12;100.00;99245.00;5152382;27;20517;-52
2022/11/09 10:11:33;;;;;;;21.58;9.55;;;;;;;11.25;100.00;99246.38;5152042;27;20098;-50
2022/11/09 10:14:39;;;;;;;21.23;10.30;;;;;;;11.98;100.00;99107.00;5152386;27;20046;-54
2022/11/09 10:17:14;;;;;;;17.55;8.73;;;;;;;11.40;100.00;99010.56;5152461;27;20870;-53
2022/11/09 10:20:07;;;;;;;22.20;9.32;;;;;;;11.83;100.00;98989.88;5152568;27;20076;-54
2022/11/09 10:22:41;;;;;;;15.80;8.63;;;;;;;11.78;100.00;98927.03;5152171;27;20051;-54
2022/11/09 10:25:17;;;;;;;15.18;9.02;;;;;;;11.45;100.00;98969.06;5152205;27;20050;-54
2022/11/09 10:27:51;;;;;;;16.45;8.60;;;;;;;11.08;100.00;99112.44;5152138;27;20051;-54
2022/11/09 10:30:20;;;;;;;18.93;9.03;;;;;;;11.53;100.00;99128.00;5151994;27;20043;-50
2022/11/09 10:32:50;;;;;;;14.70;8.40;;;;;;;12.05;100.00;99026.59;5152078;27;20137;-51
2022/11/09 10:35:19;;;;;;;14.63;9.02;;;;;;;12.35;100.00;98913.75;5152174;27;20078;-52
2022/11/09 10:37:48;;;;;;;16.02;9.40;;;;;;;12.51;100.00;98794.47;5150927;27;20046;-55
2022/11/09 10:40:20;;;;;;;24.13;9.85;;;;;;;12.43;100.00;98708.44;5151735;27;20094;-51
2022/11/09 10:42:50;;;;;;;12.20;8.10;;;;;;;11.48;100.00;98741.25;5151780;27;20050;-53
2022/11/09 10:45:26;;;;;;;14.68;8.07;;;;;;;11.13;100.00;98925.59;5151901;27;20527;-50
2022/11/09 10:47:53;;;;;;;22.83;8.48;;;;;;;11.06;100.00;99060.72;5151812;27;20067;-54
2022/11/09 10:50:29;;;;;;;13.18;8.07;;;;;;;11.34;100.00;99084.22;5152021;27;20089;-54
2022/11/09 10:53:10;;;;;;;18.33;8.57;;;;;;;11.58;100.00;99054.69;5151804;27;20135;-51
2022/11/09 10:55:36;;;;;;;18.25;8.45;;;;;;;11.77;100.00;98978.44;5152285;27;20363;-53
2022/11/09 10:58:22;;;;;;;18.38;8.75;;;;;;;11.80;100.00;98913.72;5152376;27;20051;-55
2022/11/09 11:00:58;;;;;;;16.20;9.32;;;;;;;11.64;100.00;98957.88;5151746;27;20050;-52
2022/11/09 11:03:26;;;;;;;18.02;8.55;;;;;;;11.21;100.00;98929.97;5151655;27;20058;-51
2022/11/09 11:05:57;;;;;;;16.63;9.32;;;;;;;11.31;100.00;99008.91;5151373;27;20054;-53
2022/11/09 11:08:31;;;;;;;16.70;8.88;;;;;;;11.55;100.00;99037.00;5151730;27;20042;-54
2022/11/09 11:11:14;;;;;;;14.87;8.57;;;;;;;11.23;100.00;99086.81;5151594;27;20467;-54
2022/11/09 11:13:41;;;;;;;15.10;8.90;;;;;;;11.49;100.00;99085.97;5151386;27;20104;-56
2022/11/09 11:16:16;;;;;;;19.13;9.02;;;;;;;11.49;100.00;99090.66;5151698;27;20054;-55
2022/11/09 11:18:46;;;;;;;16.73;9.65;;;;;;;11.31;100.00;99077.50;5151817;27;20080;-53
2022/11/09 11:21:16;;;;;;;16.63;8.77;;;;;;;11.32;100.00;98972.03;5151264;27;20051;-55
2022/11/09 11:23:42;;;;;;;18.27;9.35;;;;;;;11.46;100.00;98984.34;5151336;27;20498;-51